^^
Station Historical Data
Daily Summary for June 6, 2021 Units:  English    Metric   Both
Daily Weekly Monthly Yearly
  High: Low: Average:
Temperature: 83.2 °F 72.3 °F 76.2 °F
Dew Point: 70.7 °F 62.9 °F 66 °F
Humidity: 75% 61% 71%
Wind Speed: 5mph 0mph 2.3mph
Wind Gust: 8mph - -
Wind- - SSW
Pressure: 29.89 in 29.80 in -
Precipitation: 0.00 in    
 
 
Tabular Data for June 6, 2021
Time Temperature Dew Point Pressure Wind Wind Speed Wind Gust Humidity Rainfall Rate (Hourly) solar
00:00 76 °F 65.5 °F 29.81 in North 1 mph 1 mph 70% 0.00 in 0 W/m2
00:05 76.6 °F 65.7 °F 29.81 in SE 1 mph 1 mph 69% 0.00 in 0 W/m2
00:10 76.4 °F 67.1 °F 29.81 in NE 1 mph 2 mph 73% 0.00 in 0 W/m2
00:15 75.8 °F 67.3 °F 29.81 in NNW 2 mph 2 mph 75% 0.00 in 0 W/m2
00:20 75.4 °F 66.9 °F 29.81 in NNW 1 mph 2 mph 75% 0.00 in 0 W/m2
00:25 75.3 °F 66.4 °F 29.81 in NNW 1 mph 2 mph 74% 0.00 in 0 W/m2
00:30 75.2 °F 66.7 °F 29.80 in North 2 mph 2 mph 75% 0.00 in 0 W/m2
00:35 75.1 °F 66.6 °F 29.80 in North 2 mph 2 mph 75% 0.00 in 0 W/m2
00:40 75 °F 66.1 °F 29.81 in North 2 mph 2 mph 74% 0.00 in 0 W/m2
00:45 75 °F 66.1 °F 29.81 in North 2 mph 2 mph 74% 0.00 in 0 W/m2
00:50 74.9 °F 66.1 °F 29.81 in North 2 mph 2 mph 74% 0.00 in 0 W/m2
00:55 74.9 °F 66.1 °F 29.81 in North 1 mph 2 mph 74% 0.00 in 0 W/m2
01:00 74.9 °F 66.1 °F 29.81 in North 1 mph 1 mph 74% 0.00 in 0 W/m2
01:05 74.9 °F 66.1 °F 29.81 in North 2 mph 2 mph 74% 0.00 in 0 W/m2
01:10 74.9 °F 66.1 °F 29.80 in NE 2 mph 2 mph 74% 0.00 in 0 W/m2
01:15 74.9 °F 65.7 °F 29.80 in North 1 mph 2 mph 73% 0.00 in 0 W/m2
01:20 74.9 °F 66.1 °F 29.80 in NNE 1 mph 2 mph 74% 0.00 in 0 W/m2
01:25 74.6 °F 65.8 °F 29.80 in NNE 1 mph 2 mph 74% 0.00 in 0 W/m2
01:30 74.6 °F 66.1 °F 29.80 in NNE 1 mph 1 mph 75% 0.00 in 0 W/m2
01:35 74.5 °F 65.7 °F 29.80 in NNE 1 mph 1 mph 74% 0.00 in 0 W/m2
01:40 74.4 °F 66 °F 29.80 in NNW 1 mph 1 mph 75% 0.00 in 0 W/m2
01:45 74.4 °F 65.6 °F 29.80 in ENE 1 mph 2 mph 74% 0.00 in 0 W/m2
01:50 74.4 °F 65.6 °F 29.80 in ENE 1 mph 1 mph 74% 0.00 in 0 W/m2
01:55 74.4 °F 65.6 °F 29.80 in ENE 1 mph 1 mph 74% 0.00 in 0 W/m2
02:00 74.4 °F 65.6 °F 29.80 in NE 1 mph 1 mph 74% 0.00 in 0 W/m2
02:05 74.3 °F 65.9 °F 29.80 in North 1 mph 1 mph 75% 0.00 in 0 W/m2
02:10 74.1 °F 65.7 °F 29.80 in NNW 1 mph 1 mph 75% 0.00 in 0 W/m2
02:15 74.1 °F 65.7 °F 29.80 in North 1 mph 1 mph 75% 0.00 in 0 W/m2
02:20 74.1 °F 65.7 °F 29.80 in North 1 mph 2 mph 75% 0.00 in 0 W/m2
02:25 73.9 °F 65.5 °F 29.80 in North 1 mph 2 mph 75% 0.00 in 0 W/m2
02:30 73.9 °F 65.5 °F 29.80 in North 1 mph 1 mph 75% 0.00 in 0 W/m2
02:35 73.9 °F 65.5 °F 29.80 in North 1 mph 2 mph 75% 0.00 in 0 W/m2
02:40 73.8 °F 65.4 °F 29.80 in North 1 mph 1 mph 75% 0.00 in 0 W/m2
02:45 74.1 °F 64.9 °F 29.81 in SSE 1 mph 2 mph 73% 0.00 in 0 W/m2
02:50 74.2 °F 65.4 °F 29.81 in NNW 1 mph 1 mph 74% 0.00 in 0 W/m2
02:55 74.2 °F 65.4 °F 29.81 in NNW 1 mph 1 mph 74% 0.00 in 0 W/m2
03:00 74.2 °F 65 °F 29.81 in East 1 mph 1 mph 73% 0.00 in 0 W/m2
03:05 74.3 °F 65.1 °F 29.81 in NE 1 mph 1 mph 73% 0.00 in 0 W/m2
03:10 74.2 °F 64.6 °F 29.81 in North 2 mph 2 mph 72% 0.00 in 0 W/m2
03:15 74.1 °F 64.9 °F 29.81 in NNE 1 mph 2 mph 73% 0.00 in 0 W/m2
03:20 74.2 °F 65 °F 29.81 in NW 1 mph 2 mph 73% 0.00 in 0 W/m2
03:25 74.2 °F 64.6 °F 29.81 in South 1 mph 2 mph 72% 0.00 in 0 W/m2
03:30 74.3 °F 64.3 °F 29.81 in SSW 1 mph 2 mph 71% 0.00 in 0 W/m2
03:35 74.5 °F 64.1 °F 29.81 in South 2 mph 2 mph 70% 0.00 in 0 W/m2
03:40 74.6 °F 64.6 °F 29.81 in SW 2 mph 2 mph 71% 0.00 in 0 W/m2
03:45 74.6 °F 63.8 °F 29.81 in SW 2 mph 2 mph 69% 0.00 in 0 W/m2
03:50 74.6 °F 64.6 °F 29.81 in SSE 2 mph 2 mph 71% 0.00 in 0 W/m2
03:55 74.5 °F 63.7 °F 29.81 in SSW 2 mph 2 mph 69% 0.00 in 0 W/m2
04:00 74.6 °F 64.2 °F 29.81 in SSW 3 mph 3 mph 70% 0.00 in 0 W/m2
04:05 74.6 °F 63.8 °F 29.81 in SW 3 mph 3 mph 69% 0.00 in 0 W/m2
04:10 74.5 °F 64.1 °F 29.81 in South 3 mph 3 mph 70% 0.00 in 0 W/m2
04:15 74.4 °F 64 °F 29.81 in WSW 3 mph 3 mph 70% 0.00 in 0 W/m2
04:20 74.3 °F 64.3 °F 29.81 in SSE 2 mph 2 mph 71% 0.00 in 0 W/m2
04:25 74.3 °F 64.3 °F 29.81 in SW 3 mph 3 mph 71% 0.00 in 0 W/m2
04:30 74.2 °F 63.4 °F 29.81 in SSW 3 mph 3 mph 69% 0.00 in 0 W/m2
04:35 74.1 °F 63.7 °F 29.82 in SSW 4 mph 8 mph 70% 0.00 in 0 W/m2
04:40 74.1 °F 63.7 °F 29.81 in SSW 4 mph 5 mph 70% 0.00 in 0 W/m2
04:45 74.1 °F 64.1 °F 29.82 in SSW 5 mph 5 mph 71% 0.00 in 0 W/m2
04:50 73.9 °F 63.5 °F 29.82 in SSW 4 mph 4 mph 70% 0.00 in 0 W/m2
04:55 73.9 °F 63.9 °F 29.82 in SSW 4 mph 4 mph 71% 0.00 in 0 W/m2
05:00 73.8 °F 63.4 °F 29.82 in WSW 4 mph 5 mph 70% 0.00 in 0 W/m2
05:05 73.7 °F 63.7 °F 29.82 in SW 4 mph 5 mph 71% 0.00 in 0 W/m2
05:10 73.7 °F 63.7 °F 29.82 in South 4 mph 7 mph 71% 0.00 in 0 W/m2
05:15 73.6 °F 63.6 °F 29.82 in West 4 mph 7 mph 71% 0.00 in 0 W/m2
05:20 73.5 °F 63.5 °F 29.82 in WSW 4 mph 4 mph 71% 0.00 in 0 W/m2
05:25 73.4 °F 63.8 °F 29.82 in SW 4 mph 6 mph 72% 0.00 in 0 W/m2
05:30 73.4 °F 63.8 °F 29.82 in SW 4 mph 4 mph 72% 0.00 in 0 W/m2
05:35 73.3 °F 63.7 °F 29.82 in SW 4 mph 4 mph 72% 0.00 in 0 W/m2
05:40 73.2 °F 63.2 °F 29.82 in SSE 4 mph 5 mph 71% 0.00 in 0 W/m2
05:45 73.3 °F 63.3 °F 29.83 in SSW 4 mph 5 mph 71% 0.00 in 0 W/m2
05:50 73.2 °F 63.6 °F 29.83 in SW 4 mph 4 mph 72% 0.00 in 0 W/m2
05:55 73.2 °F 64 °F 29.83 in South 3 mph 4 mph 73% 0.00 in 0 W/m2
06:00 73.1 °F 63.5 °F 29.83 in SSW 3 mph 3 mph 72% 0.00 in 5 W/m2
06:05 73 °F 63.8 °F 29.83 in SW 4 mph 4 mph 73% 0.00 in 7 W/m2
06:10 73 °F 63.4 °F 29.83 in SSW 3 mph 6 mph 72% 0.00 in 11 W/m2
06:15 73 °F 63 °F 29.83 in SSW 3 mph 6 mph 71% 0.00 in 14 W/m2
06:20 73 °F 63.8 °F 29.83 in South 4 mph 5 mph 73% 0.00 in 18 W/m2
06:25 73 °F 63.4 °F 29.84 in SSW 4 mph 5 mph 72% 0.00 in 21 W/m2
06:30 72.9 °F 63.3 °F 29.84 in SW 4 mph 4 mph 72% 0.00 in 23 W/m2
06:35 72.9 °F 63.3 °F 29.84 in SSW 4 mph 6 mph 72% 0.00 in 26 W/m2
06:40 73 °F 63.4 °F 29.84 in SSW 4 mph 4 mph 72% 0.00 in 28 W/m2
06:45 72.8 °F 63.2 °F 29.84 in SSW 4 mph 4 mph 72% 0.00 in 32 W/m2
06:50 72.7 °F 63.5 °F 29.84 in SW 4 mph 5 mph 73% 0.00 in 32 W/m2
06:55 72.7 °F 63.5 °F 29.84 in SW 4 mph 5 mph 73% 0.00 in 33 W/m2
07:00 72.6 °F 63.1 °F 29.85 in SSW 4 mph 6 mph 72% 0.00 in 35 W/m2
07:05 72.6 °F 63.8 °F 29.85 in SW 4 mph 6 mph 74% 0.00 in 39 W/m2
07:10 72.5 °F 63.7 °F 29.85 in SW 4 mph 5 mph 74% 0.00 in 39 W/m2
07:15 72.5 °F 63.4 °F 29.85 in SSE 4 mph 5 mph 73% 0.00 in 40 W/m2
07:20 72.5 °F 63.7 °F 29.85 in South 4 mph 5 mph 74% 0.00 in 42 W/m2
07:25 72.5 °F 63.4 °F 29.85 in SSW 4 mph 5 mph 73% 0.00 in 42 W/m2
07:30 72.5 °F 63.4 °F 29.85 in SSW 4 mph 4 mph 73% 0.00 in 62 W/m2
07:35 72.5 °F 63.7 °F 29.86 in SW 4 mph 4 mph 74% 0.00 in 67 W/m2
07:40 72.4 °F 63.6 °F 29.86 in SSW 4 mph 4 mph 74% 0.00 in 97 W/m2
07:45 72.4 °F 62.9 °F 29.87 in SSW 4 mph 4 mph 72% 0.00 in 218 W/m2
07:50 72.4 °F 63.6 °F 29.87 in South 4 mph 4 mph 74% 0.00 in 90 W/m2
07:55 72.4 °F 63.6 °F 29.87 in SSW 4 mph 4 mph 74% 0.00 in 246 W/m2
08:00 72.4 °F 63.6 °F 29.87 in SW 4 mph 6 mph 74% 0.00 in 262 W/m2
08:05 72.3 °F 63.9 °F 29.87 in SSW 4 mph 6 mph 75% 0.00 in 276 W/m2
08:10 72.3 °F 63.5 °F 29.87 in SSW 4 mph 4 mph 74% 0.00 in 288 W/m2
08:15 72.3 °F 63.9 °F 29.87 in SW 4 mph 4 mph 75% 0.00 in 308 W/m2
08:20 72.3 °F 63.5 °F 29.88 in SSW 4 mph 4 mph 74% 0.00 in 306 W/m2
08:25 72.4 °F 63.6 °F 29.88 in SW 4 mph 4 mph 74% 0.00 in 318 W/m2
08:30 72.4 °F 64 °F 29.88 in SSW 4 mph 5 mph 75% 0.00 in 334 W/m2
08:35 72.5 °F 63.7 °F 29.88 in SW 4 mph 5 mph 74% 0.00 in 334 W/m2
08:40 72.5 °F 63.7 °F 29.88 in SW 3 mph 4 mph 74% 0.00 in 339 W/m2
08:45 72.6 °F 64.2 °F 29.88 in SSW 3 mph 6 mph 75% 0.00 in 360 W/m2
08:50 72.6 °F 63.8 °F 29.88 in SSW 3 mph 3 mph 74% 0.00 in 387 W/m2
08:55 72.7 °F 63.5 °F 29.88 in SSW 3 mph 4 mph 73% 0.00 in 399 W/m2
09:00 72.9 °F 64.1 °F 29.88 in SW 4 mph 4 mph 74% 0.00 in 411 W/m2
09:05 73 °F 63.8 °F 29.88 in West 3 mph 4 mph 73% 0.00 in 399 W/m2
09:10 73.1 °F 64.3 °F 29.89 in SSW 3 mph 3 mph 74% 0.00 in 429 W/m2
09:15 73.2 °F 64 °F 29.89 in SW 4 mph 4 mph 73% 0.00 in 434 W/m2
09:20 73.3 °F 64.5 °F 29.88 in SSW 3 mph 3 mph 74% 0.00 in 446 W/m2
09:25 73.3 °F 64.1 °F 29.89 in SW 3 mph 3 mph 73% 0.00 in 480 W/m2
09:30 73.5 °F 64.3 °F 29.89 in SW 3 mph 3 mph 73% 0.00 in 473 W/m2
09:35 73.6 °F 64 °F 29.89 in SSW 3 mph 4 mph 72% 0.00 in 468 W/m2
09:40 73.8 °F 64.2 °F 29.89 in SSW 3 mph 3 mph 72% 0.00 in 487 W/m2
09:45 74 °F 64.4 °F 29.89 in SW 3 mph 4 mph 72% 0.00 in 519 W/m2
09:50 74 °F 64.4 °F 29.89 in SSW 3 mph 4 mph 72% 0.00 in 469 W/m2
09:55 74.1 °F 64.5 °F 29.89 in SW 3 mph 4 mph 72% 0.00 in 554 W/m2
10:00 74.2 °F 65 °F 29.89 in SSW 3 mph 3 mph 73% 0.00 in 585 W/m2
10:05 74.4 °F 65.2 °F 29.89 in SSW 3 mph 3 mph 73% 0.00 in 594 W/m2
10:10 74.6 °F 65.4 °F 29.89 in SSW 3 mph 3 mph 73% 0.00 in 575 W/m2
10:15 74.6 °F 65 °F 29.89 in SSW 3 mph 3 mph 72% 0.00 in 587 W/m2
10:20 74.8 °F 65.2 °F 29.89 in SSW 3 mph 3 mph 72% 0.00 in 561 W/m2
10:25 75 °F 65.4 °F 29.89 in South 3 mph 4 mph 72% 0.00 in 554 W/m2
10:30 75.2 °F 65.1 °F 29.89 in SSW 3 mph 4 mph 71% 0.00 in 628 W/m2
10:35 75.4 °F 65.7 °F 29.89 in SW 3 mph 4 mph 72% 0.00 in 663 W/m2
10:40 75.5 °F 65.4 °F 29.89 in SW 3 mph 3 mph 71% 0.00 in 642 W/m2
10:45 75.8 °F 65.7 °F 29.89 in SW 3 mph 3 mph 71% 0.00 in 673 W/m2
10:50 75.9 °F 65.8 °F 29.89 in SW 3 mph 3 mph 71% 0.00 in 671 W/m2
10:55 76 °F 66.3 °F 29.89 in SW 3 mph 3 mph 72% 0.00 in 670 W/m2
11:00 76.1 °F 66.4 °F 29.89 in SW 3 mph 3 mph 72% 0.00 in 729 W/m2
11:05 76.2 °F 66.1 °F 29.89 in SW 2 mph 3 mph 71% 0.00 in 733 W/m2
11:10 76.4 °F 66.3 °F 29.89 in SSW 3 mph 3 mph 71% 0.00 in 740 W/m2
11:15 76.6 °F 66.5 °F 29.89 in SSW 3 mph 3 mph 71% 0.00 in 758 W/m2
11:20 76.7 °F 66.6 °F 29.88 in SSW 3 mph 3 mph 71% 0.00 in 747 W/m2
11:25 76.8 °F 66.7 °F 29.88 in WSW 3 mph 3 mph 71% 0.00 in 737 W/m2
11:30 77 °F 66.9 °F 29.88 in SSW 3 mph 3 mph 71% 0.00 in 728 W/m2
11:35 77.2 °F 67.1 °F 29.89 in SSW 2 mph 3 mph 71% 0.00 in 749 W/m2
11:40 77.4 °F 67.3 °F 29.89 in SW 3 mph 3 mph 71% 0.00 in 777 W/m2
11:45 77.6 °F 67.4 °F 29.88 in SW 3 mph 4 mph 71% 0.00 in 759 W/m2
11:50 77.6 °F 67.9 °F 29.88 in SW 3 mph 3 mph 72% 0.00 in 777 W/m2
11:55 77.7 °F 67.5 °F 29.88 in SW 3 mph 3 mph 71% 0.00 in 800 W/m2
12:00 77.8 °F 67.6 °F 29.88 in SSW 3 mph 4 mph 71% 0.00 in 784 W/m2
12:05 77.9 °F 67.7 °F 29.88 in SW 3 mph 4 mph 71% 0.00 in 809 W/m2
12:10 78.2 °F 68 °F 29.88 in SW 3 mph 3 mph 71% 0.00 in 817 W/m2
12:15 78.3 °F 67.7 °F 29.88 in SSW 3 mph 3 mph 70% 0.00 in 830 W/m2
12:20 78.5 °F 67.9 °F 29.88 in SW 3 mph 3 mph 70% 0.00 in 830 W/m2
12:25 78.7 °F 67.7 °F 29.88 in SW 3 mph 3 mph 69% 0.00 in 807 W/m2
12:30 78.7 °F 67.7 °F 29.88 in SW 3 mph 3 mph 69% 0.00 in 847 W/m2
12:35 78.6 °F 67.6 °F 29.88 in South 3 mph 3 mph 69% 0.00 in 828 W/m2
12:40 78.8 °F 67.8 °F 29.87 in SSW 3 mph 3 mph 69% 0.00 in 844 W/m2
12:45 79.1 °F 68.1 °F 29.88 in SSW 3 mph 3 mph 69% 0.00 in 833 W/m2
12:50 79 °F 68 °F 29.87 in SSW 3 mph 3 mph 69% 0.00 in 835 W/m2
12:55 79.2 °F 67.7 °F 29.87 in SSW 3 mph 3 mph 68% 0.00 in 830 W/m2
13:00 79.4 °F 67.9 °F 29.87 in SSW 3 mph 3 mph 68% 0.00 in 870 W/m2
13:05 79.4 °F 68.3 °F 29.87 in SSW 3 mph 3 mph 69% 0.00 in 875 W/m2
13:10 79.4 °F 67.5 °F 29.87 in SSW 3 mph 3 mph 67% 0.00 in 882 W/m2
13:15 79.7 °F 68.2 °F 29.87 in SSW 3 mph 3 mph 68% 0.00 in 886 W/m2
13:20 79.8 °F 68.3 °F 29.87 in SSW 3 mph 3 mph 68% 0.00 in 886 W/m2
13:25 79.8 °F 68.3 °F 29.87 in SW 3 mph 3 mph 68% 0.00 in 882 W/m2
13:30 79.6 °F 68.5 °F 29.86 in SSW 2 mph 2 mph 69% 0.00 in 888 W/m2
13:35 80 °F 68.5 °F 29.86 in SSW 1 mph 2 mph 68% 0.00 in 886 W/m2
13:40 80.2 °F 68.7 °F 29.86 in SSW 1 mph 2 mph 68% 0.00 in 889 W/m2
13:45 80.2 °F 68.7 °F 29.86 in SSW 2 mph 3 mph 68% 0.00 in 886 W/m2
13:50 80.1 °F 69 °F 29.86 in SSW 3 mph 3 mph 69% 0.00 in 875 W/m2
13:55 80.1 °F 69 °F 29.86 in SSW 2 mph 3 mph 69% 0.00 in 888 W/m2
14:00 80.2 °F 69.1 °F 29.86 in SSW 2 mph 2 mph 69% 0.00 in 870 W/m2
14:05 80.5 °F 69.4 °F 29.86 in SSW 2 mph 2 mph 69% 0.00 in 867 W/m2
14:10 80.6 °F 69.5 °F 29.86 in WSW 2 mph 2 mph 69% 0.00 in 833 W/m2
14:15 80.9 °F 70.2 °F 29.86 in North 1 mph 2 mph 70% 0.00 in 791 W/m2
14:20 81.1 °F 70 °F 29.86 in Calm     69% 0.00 in 821 W/m2
14:25 81.7 °F 70.1 °F 29.86 in Calm     68% 0.00 in 828 W/m2
14:30 81.9 °F 69.9 °F 29.86 in Calm     67% 0.00 in 840 W/m2
14:35 82.2 °F 69.3 °F 29.86 in Calm     65% 0.00 in 856 W/m2
14:40 81.9 °F 69.9 °F 29.85 in Calm     67% 0.00 in 860 W/m2
14:45 81.6 °F 70 °F 29.85 in Calm     68% 0.00 in 858 W/m2
14:50 81.6 °F 70.4 °F 29.85 in Calm     69% 0.00 in 842 W/m2
14:55 82 °F 70.4 °F 29.85 in Calm     68% 0.00 in 824 W/m2
15:00 82.6 °F 68.7 °F 29.85 in Calm     63% 0.00 in 821 W/m2
15:05 82.3 °F 70.2 °F 29.85 in Calm     67% 0.00 in 831 W/m2
15:10 82.4 °F 69.4 °F 29.85 in Calm     65% 0.00 in 837 W/m2
15:15 82.5 °F 69.1 °F 29.85 in Calm     64% 0.00 in 826 W/m2
15:20 81.9 °F 70.7 °F 29.85 in Calm     69% 0.00 in 824 W/m2
15:25 81.8 °F 70.6 °F 29.85 in Calm     69% 0.00 in 807 W/m2
15:30 81.9 °F 70.3 °F 29.85 in Calm     68% 0.00 in 798 W/m2
15:35 82 °F 70 °F 29.84 in Calm     67% 0.00 in 784 W/m2
15:40 82.9 °F 68.1 °F 29.84 in Calm     61% 0.00 in 777 W/m2
15:45 83.2 °F 68.8 °F 29.84 in Calm     62% 0.00 in 780 W/m2
15:50 83 °F 68.6 °F 29.84 in Calm     62% 0.00 in 770 W/m2
15:55 82.9 °F 68.5 °F 29.84 in Calm     62% 0.00 in 749 W/m2
16:00 82.7 °F 68.4 °F 29.84 in Calm     62% 0.00 in 756 W/m2
16:05 82.7 °F 68.8 °F 29.84 in Calm     63% 0.00 in 744 W/m2
16:10 82.7 °F 68.4 °F 29.84 in Calm     62% 0.00 in 733 W/m2
16:15 82.6 °F 68.3 °F 29.84 in Calm     62% 0.00 in 722 W/m2
16:20 82.1 °F 68.3 °F 29.84 in Calm     63% 0.00 in 708 W/m2
16:25 82.3 °F 68.4 °F 29.84 in Calm     63% 0.00 in 700 W/m2
16:30 82.1 °F 68.7 °F 29.84 in Calm     64% 0.00 in 689 W/m2
16:35 82.3 °F 68.4 °F 29.83 in Calm     63% 0.00 in 682 W/m2
16:40 82.4 °F 68.5 °F 29.83 in Calm     63% 0.00 in 671 W/m2
16:45 82.4 °F 69 °F 29.83 in Calm   8 mph 64% 0.00 in 656 W/m2
16:50 82.1 °F 68.7 °F 29.83 in WSW 2 mph 2 mph 64% 0.00 in 647 W/m2
16:55 82.1 °F 69.2 °F 29.83 in South 4 mph 3 mph 65% 0.00 in 643 W/m2
17:00 82.1 °F 69.6 °F 29.83 in SW 4 mph 4 mph 66% 0.00 in 628 W/m2
17:05 82.1 °F 70.1 °F 29.83 in North 4 mph 4 mph 67% 0.00 in 612 W/m2
Sand Point, Michigan, USA
Compliments of Weather Underground - 2 mb